AI5RB Weather Reports


Display with metric or nautical units.
time (UTC)temp
F
wind
direction
speed
MPH
gust
MPH
rain 1hr
in
rain 24hr
in
rain mn
in
humidity
%
barometer
mb
20190320084549 53 173 0.0 4.0 0.00 0.00 0.00 83 1020.8
20190320083006 52 163 0.0 4.0 0.00 0.00 0.00 84 1021.0
20190320081640 52 177 0.0 3.0 0.00 0.00 0.00 84 1021.2
20190320080017 52 182 0.0 3.0 0.00 0.00 0.00 84 1021.3
20190320074633 52 202 0.0 2.0 0.00 0.00 0.00 83 1021.5
20190320073028 52 219 0.0 1.0 0.00 0.00 0.00 83 1021.6
20190320071712 52 238 0.0 1.0 0.00 0.00 0.00 83 1021.6
20190320070024 52 221 0.0 2.0 0.00 0.00 0.00 82 1021.6
20190320064627 52 194 0.0 6.0 0.00 0.00 0.00 82 1021.7
20190320063108 52 225 0.0 3.0 0.00 0.00 0.00 82 1021.9
20190320061654 52 194 0.0 2.0 0.00 0.00 0.00 82 1022.0
20190320060032 52 219 0.0 2.0 0.00 0.00 0.00 81 1022.0
20190320054632 52 190 0.0 3.0 0.00 0.00 0.00 81 1022.0
20190320053037 53 206 0.0 4.0 0.00 0.00 0.00 80 1022.1
20190320051838 53 214 0.0 3.0 0.00 0.00 0.00 79 1022.2
20190320050041 53 148 0.0 3.0 0.00 0.00 0.00 79 1022.1
20190320044708 53 204 0.0 2.0 0.00 0.00 0.00 79 1022.2
20190320043133 53 265 0.0 0.0 0.00 0.00 0.00 78 1022.2
20190320041520 54 265 0.0 0.0 0.00 0.00 0.00 76 1022.2
20190320040106 55 265 0.0 0.0 0.00 0.00 0.00 74 1022.1
20190320034524 56 265 0.0 0.0 0.00 0.00 0.00 73 1021.9
20190320033213 57 265 0.0 0.0 0.00 0.00 0.00 72 1021.9
20190320031551 57 265 0.0 0.0 0.00 0.00 0.00 71 1021.9
20190320030239 58 265 0.0 0.0 0.00 0.00 0.00 70 1021.7
20190320024626 58 229 0.0 1.0 0.00 0.00 0.00 69 1021.7
20190320023012 58 233 0.0 3.0 0.00 0.00 0.00 68 1021.6
20190320021639 58 204 0.0 1.0 0.00 0.00 0.00 68 1021.5
20190320020021 58 234 0.0 1.0 0.00 0.00 0.00 67 1021.3
20190320014715 59 200 0.0 0.0 0.00 0.00 0.00 67 1021.0
20190320013059 59 218 0.0 1.0 0.00 0.00 0.00 66 1021.0
20190320011640 59 135 0.0 1.0 0.00 0.00 0.00 65 1021.0
20190320010047 59 192 0.0 2.0 0.00 0.00 0.00 64 1020.9
20190320004618 60 182 0.0 1.0 0.00 0.00 0.00 63 1021.0
20190320003047 60 186 0.0 2.0 0.00 0.00 0.00 62 1021.0
20190320001808 60 221 0.0 5.0 0.00 0.00 0.00 60 1020.8
20190320000102 61 240 0.0 1.0 0.00 0.00 0.00 59 1020.8
20190319234700 61 161 0.0 3.0 0.00 0.00 0.00 56 1020.7
20190319233116 62 234 0.0 5.0 0.00 0.00 0.00 55 1020.7
20190319231515 63 142 0.0 5.0 0.00 0.00 0.00 51 1020.6
20190319230152 64 170 1.0 7.0 0.00 0.00 0.00 47 1020.6
20190319224527 65 270 0.0 4.0 0.00 0.00 0.00 43 1020.6
20190319223138 65 147 1.0 8.0 0.00 0.00 0.00 46 1020.7
20190319221610 65 318 1.0 10.0 0.00 0.00 0.00 47 1020.7
20190319220236 65 49 0.0 10.0 0.00 0.00 0.00 47 1020.6
20190319214603 67 228 0.0 9.0 0.00 0.00 0.00 40 1020.7
20190319213028 69 149 1.0 7.0 0.00 0.00 0.00 38 1020.7
20190319211634 68 116 0.0 7.0 0.00 0.00 0.00 41 1020.7
20190319210005 67 129 0.0 7.0 0.00 0.00 0.00 40 1020.8
20190319204601 67 127 3.0 8.0 0.00 0.00 0.00 41 1021.0
20190319203026 67 150 2.0 7.0 0.00 0.00 0.00 40 1021.2
20190319201637 66 128 1.0 8.0 0.00 0.00 0.00 41 1021.3
20190319200047 66 152 1.0 8.0 0.00 0.00 0.00 40 1021.5
20190319194610 66 85 0.0 11.0 0.00 0.00 0.00 41 1021.7
20190319193036 67 190 2.0 16.0 0.00 0.00 0.00 37 1021.9
20190319191657 67 161 1.0 10.0 0.00 0.00 0.00 37 1022.3
20190319190043 66 103 0.0 9.0 0.00 0.00 0.00 41 1022.6
20190319184637 65 94 3.0 14.0 0.00 0.00 0.00 40 1023.0
20190319183038 65 246 1.0 13.0 0.00 0.00 0.00 40 1023.2
20190319181505 64 96 3.0 17.0 0.00 0.00 0.00 42 1023.4
20190319180051 65 109 2.0 10.0 0.00 0.00 0.00 43 1023.6
20190319174506 64 140 0.0 11.0 0.00 0.00 0.00 42 1023.7
20190319173100 64 155 2.0 10.0 0.00 0.00 0.00 41 1023.7
20190319171520 63 195 5.0 11.0 0.00 0.00 0.00 41 1023.9
20190319170059 63 215 2.0 9.0 0.00 0.00 0.00 41 1024.1
20190319164611 64 250 2.0 12.0 0.00 0.00 0.00 42 1024.2
20190319163155 63 120 2.0 10.0 0.00 0.00 0.00 42 1024.4
20190319161536 63 154 2.0 10.0 0.00 0.00 0.00 43 1024.4
20190319160201 62 198 4.0 12.0 0.00 0.00 0.00 45 1024.3
20190319154550 60 96 2.0 11.0 0.00 0.00 0.00 47 1024.5
20190319153225 59 191 1.0 7.0 0.00 0.00 0.00 48 1024.3
20190319151542 59 110 0.0 4.0 0.00 0.00 0.00 49 1024.3
20190319150150 58 86 1.0 4.0 0.00 0.00 0.00 52 1024.2
20190319144600 58 194 0.0 4.0 0.00 0.00 0.00 50 1024.2
20190319143207 55 140 0.0 4.0 0.00 0.00 0.00 55 1024.0
20190319141547 53 96 0.0 0.0 0.00 0.00 0.00 62 1024.1
20190319140154 53 96 0.0 0.0 0.00 0.00 0.00 62 1023.9
20190319134552 52 95 0.0 1.0 0.00 0.00 0.00 61 1023.7
20190319133011 50 217 0.0 0.0 0.00 0.00 0.00 67 1023.6
20190319131644 48 217 0.0 0.0 0.00 0.00 0.00 75 1023.6
20190319130010 48 217 0.0 0.0 0.00 0.00 0.00 70 1023.6
20190319124610 47 217 0.0 0.0 0.00 0.00 0.00 66 1023.4
20190319123018 47 217 0.0 0.0 0.00 0.00 0.00 67 1023.5
20190319121708 48 217 0.0 0.0 0.00 0.00 0.00 65 1023.4
20190319120019 48 217 0.0 0.0 0.00 0.00 0.00 64 1023.4
20190319114736 48 217 0.0 0.0 0.00 0.00 0.00 64 1023.4
20190319113044 48 217 0.0 0.0 0.00 0.00 0.00 66 1023.4
20190319111524 48 217 0.0 0.0 0.00 0.00 0.00 63 1023.4
20190319110215 49 217 0.0 0.0 0.00 0.00 0.00 64 1023.2
20190319104510 49 217 0.0 0.0 0.00 0.00 0.00 62 1023.0
20190319103207 49 217 0.0 0.0 0.00 0.00 0.00 60 1023.0
20190319101528 48 219 0.0 0.0 0.00 0.00 0.00 62 1023.0
20190319100144 49 219 0.0 0.0 0.00 0.00 0.00 63 1022.9
20190319094531 49 219 0.0 0.0 0.00 0.00 0.00 61 1022.6
20190319093127 49 219 0.0 0.0 0.00 0.00 0.00 61 1022.7
20190319091618 49 217 0.0 0.0 0.00 0.00 0.00 61 1023.0
20190319090248 49 217 0.0 1.0 0.00 0.00 0.00 61 1023.1